Time;durP1;ratioP1;P1;durP2;ratioP2;P2;SDS_P1;SDS_P2;PMS_P1;PMS_P2;Temp;Humidity;BMP_temperature;BMP_pressure;BME280_temperature;BME280_humidity;BME280_pressure;Samples;Min_cycle;Max_cycle;Signal;HPM_P1;HPM_P2
2022/03/07 00:01:30;;;;;;;;;30.00;25.00;;;;;;;;5211593;28;9722;-71
2022/03/07 00:04:02;;;;;;;;;34.00;31.00;;;;;;;;5227913;28;8918;-71
2022/03/07 00:06:33;;;;;;;;;17.33;17.33;;;;;;;;5228181;28;9288;-71
2022/03/07 00:09:22;;;;;;;;;31.67;31.67;;;;;;;;5229594;28;9387;-71
2022/03/07 00:11:53;;;;;;;;;28.00;24.67;;;;;;;;5211033;28;9511;-72
2022/03/07 00:14:25;;;;;;;;;16.33;16.33;;;;;;;;5211302;28;9772;-72
2022/03/07 00:16:56;;;;;;;;;23.33;19.00;;;;;;;;5206907;28;9065;-71
2022/03/07 00:19:29;;;;;;;;;34.67;29.00;;;;;;;;5207530;28;9208;-71
2022/03/07 00:22:00;;;;;;;;;6.67;6.67;;;;;;;;5191112;28;9701;-70
2022/03/07 00:24:31;;;;;;;;;19.67;18.33;;;;;;;;5206969;28;8962;-71
2022/03/07 00:27:04;;;;;;;;;28.00;24.00;;;;;;;;5190824;28;9299;-71
2022/03/07 00:29:36;;;;;;;;;15.00;13.67;;;;;;;;5190600;28;9061;-72
2022/03/07 00:32:25;;;;;;;;;19.67;18.00;;;;;;;;5217848;28;9286;-71
2022/03/07 00:35:16;;;;;;;;;14.33;14.33;;;;;;;;5228844;28;9215;-71
2022/03/07 00:37:47;;;;;;;;;15.67;15.00;;;;;;;;5226826;28;9330;-71
2022/03/07 00:40:19;;;;;;;;;27.00;26.67;;;;;;;;5194443;28;9194;-72
2022/03/07 00:42:50;;;;;;;;;2.33;1.00;;;;;;;;5210729;28;9546;-71
2022/03/07 00:45:21;;;;;;;;;4.67;4.67;;;;;;;;5210825;28;9329;-71
2022/03/07 00:47:55;;;;;;;;;21.67;20.67;;;;;;;;5226869;28;9689;-70
2022/03/07 00:50:26;;;;;;;;;29.00;28.33;;;;;;;;5193725;28;9645;-71
2022/03/07 00:52:57;;;;;;;;;23.33;23.33;;;;;;;;5231174;28;10463;-70
2022/03/07 00:55:30;;;;;;;;;22.67;22.00;;;;;;;;5214548;28;9569;-72
2022/03/07 00:58:02;;;;;;;;;24.00;24.00;;;;;;;;5231075;28;9838;-72
2022/03/07 01:00:33;;;;;;;;;12.67;12.67;;;;;;;;5230992;28;9576;-72
2022/03/07 01:03:06;;;;;;;;;6.00;4.67;;;;;;;;5197938;28;9340;-72
2022/03/07 01:05:40;;;;;;;;;32.67;31.67;;;;;;;;5197274;28;9355;-70
2022/03/07 01:08:11;;;;;;;;;20.33;18.67;;;;;;;;5231167;28;9925;-71
2022/03/07 01:11:01;;;;;;;;;24.67;23.33;;;;;;;;5230669;28;9325;-72
2022/03/07 01:13:32;;;;;;;;;18.00;18.00;;;;;;;;5214205;28;9347;-72
2022/03/07 01:16:03;;;;;;;;;21.00;19.00;;;;;;;;5230230;28;9412;-71
2022/03/07 01:18:36;;;;;;;;;12.33;12.33;;;;;;;;5230826;28;9335;-72
2022/03/07 01:21:07;;;;;;;;;10.00;9.00;;;;;;;;5197948;28;9179;-71
2022/03/07 01:23:57;;;;;;;;;8.50;6.50;;;;;;;;5230804;28;9974;-70
2022/03/07 01:26:28;;;;;;;;;23.00;21.00;;;;;;;;5230704;28;8842;-70
2022/03/07 01:28:59;;;;;;;;;20.33;19.00;;;;;;;;5214105;28;10033;-70
2022/03/07 01:31:30;;;;;;;;;23.33;23.33;;;;;;;;5213588;28;9468;-70
2022/03/07 01:34:02;;;;;;;;;31.25;31.25;;;;;;;;5213576;28;9943;-71
2022/03/07 01:36:51;;;;;;;;;7.00;7.00;;;;;;;;5216893;28;10121;-71
2022/03/07 01:39:23;;;;;;;;;19.67;18.67;;;;;;;;5230056;28;9509;-71
2022/03/07 01:41:54;;;;;;;;;18.00;18.00;;;;;;;;5230311;28;9576;-71
2022/03/07 01:44:29;;;;;;;;;16.00;16.00;;;;;;;;5197091;28;9502;-70
2022/03/07 01:47:00;;;;;;;;;16.00;16.00;;;;;;;;5213588;28;9341;-70
2022/03/07 01:49:33;;;;;;;;;6.00;6.00;;;;;;;;5213112;28;10118;-70
2022/03/07 01:52:04;;;;;;;;;13.67;13.00;;;;;;;;5213225;28;9243;-69
2022/03/07 01:54:36;;;;;;;;;21.67;20.33;;;;;;;;5230038;28;9277;-71
2022/03/07 01:57:08;;;;;;;;;20.67;19.33;;;;;;;;5229917;28;9801;-71
2022/03/07 01:59:39;;;;;;;;;24.33;24.33;;;;;;;;5246482;28;9648;-70
2022/03/07 02:02:11;;;;;;;;;26.33;26.33;;;;;;;;5229154;28;9555;-71
2022/03/07 02:04:43;;;;;;;;;38.75;37.25;;;;;;;;5212772;28;9823;-71
2022/03/07 02:07:15;;;;;;;;;5.00;4.33;;;;;;;;5229970;28;10064;-72
2022/03/07 02:09:46;;;;;;;;;9.33;9.33;;;;;;;;5212684;28;9672;-71
2022/03/07 02:12:20;;;;;;;;;15.00;14.33;;;;;;;;5229707;28;11555;-73
2022/03/07 02:14:51;;;;;;;;;24.67;24.67;;;;;;;;5212857;28;9507;-72
2022/03/07 02:17:23;;;;;;;;;21.00;19.75;;;;;;;;5241274;28;9747;-75
2022/03/07 02:19:54;;;;;;;;;12.00;12.00;;;;;;;;5245524;28;9950;-74
2022/03/07 02:22:26;;;;;;;;;26.50;26.50;;;;;;;;5228760;28;10540;-73
2022/03/07 02:24:57;;;;;;;;;26.25;26.25;;;;;;;;5229577;28;9881;-73
2022/03/07 02:27:29;;;;;;;;;35.50;33.50;;;;;;;;5229156;28;10034;-73
2022/03/07 02:30:18;;;;;;;;;53.50;48.00;;;;;;;;5229182;28;10361;-72
2022/03/07 02:32:51;;;;;;;;;38.25;31.25;;;;;;;;5212307;28;10816;-74
2022/03/07 02:35:22;;;;;;;;;42.75;38.75;;;;;;;;5229188;28;10849;-72
2022/03/07 02:37:53;;;;;;;;;14.00;12.67;;;;;;;;5212271;28;10285;-71
2022/03/07 02:40:25;;;;;;;;;31.00;31.00;;;;;;;;5212374;28;9486;-71
2022/03/07 02:42:57;;;;;;;;;43.25;41.75;;;;;;;;5227665;28;9795;-70
2022/03/07 02:45:47;;;;;;;;;48.75;44.00;;;;;;;;5239809;28;10373;-71
2022/03/07 02:48:19;;;;;;;;;39.25;33.00;;;;;;;;5237027;28;10380;-72
2022/03/07 02:50:50;;;;;;;;;35.50;28.25;;;;;;;;5210681;28;10225;-72
2022/03/07 02:53:22;;;;;;;;;35.50;34.25;;;;;;;;5228015;28;10755;-72
2022/03/07 02:55:54;;;;;;;;;25.00;23.00;;;;;;;;5228343;28;10051;-72
2022/03/07 02:58:25;;;;;;;;;17.00;16.25;;;;;;;;5228892;28;10441;-72
2022/03/07 03:00:57;;;;;;;;;12.00;12.00;;;;;;;;5212003;28;9719;-72
2022/03/07 03:03:28;;;;;;;;;11.00;10.67;;;;;;;;5227486;28;9282;-72
2022/03/07 03:05:59;;;;;;;;;24.00;24.00;;;;;;;;5217996;28;9441;-72
2022/03/07 03:08:30;;;;;;;;;6.00;6.00;;;;;;;;5229331;28;9728;-72
2022/03/07 03:11:02;;;;;;;;;8.33;8.33;;;;;;;;5227703;28;9357;-71
2022/03/07 03:13:36;;;;;;;;;14.67;14.67;;;;;;;;5211536;28;9476;-73
2022/03/07 03:16:07;;;;;;;;;19.00;16.00;;;;;;;;5195388;28;9553;-71
2022/03/07 03:18:38;;;;;;;;;10.00;10.00;;;;;;;;5212131;28;9482;-73
2022/03/07 03:21:09;;;;;;;;;19.33;17.67;;;;;;;;5210962;28;9526;-73
2022/03/07 03:23:41;;;;;;;;;24.33;24.00;;;;;;;;5210989;28;9416;-74
2022/03/07 03:26:12;;;;;;;;;15.33;15.33;;;;;;;;5211217;28;9747;-73
2022/03/07 03:28:43;;;;;;;;;23.75;23.00;;;;;;;;5211298;28;9594;-74
2022/03/07 03:31:14;;;;;;;;;80.50;64.75;;;;;;;;5245417;28;11526;-73
2022/03/07 03:33:45;;;;;;;;;51.50;45.25;;;;;;;;5211155;28;11506;-73
2022/03/07 03:36:35;;;;;;;;;51.50;47.50;;;;;;;;5213671;28;11847;-72
2022/03/07 03:39:25;;;;;;;;;49.75;47.00;;;;;;;;5213983;28;10976;-72
2022/03/07 03:41:56;;;;;;;;;52.25;47.50;;;;;;;;5226445;28;10754;-72
2022/03/07 03:44:28;;;;;;;;;25.25;25.25;;;;;;;;5227641;28;10701;-73
2022/03/07 03:46:59;;;;;;;;;41.75;38.50;;;;;;;;5210113;28;10194;-72
2022/03/07 03:49:31;;;;;;;;;39.50;36.75;;;;;;;;5226903;28;12202;-70
2022/03/07 03:52:03;;;;;;;;;9.00;9.00;;;;;;;;5227679;28;10418;-69
2022/03/07 03:54:36;;;;;;;;;30.50;28.50;;;;;;;;5210751;28;9744;-70
2022/03/07 03:57:07;;;;;;;;;23.50;23.50;;;;;;;;5211331;28;9728;-70
2022/03/07 03:59:57;;;;;;;;;19.00;19.00;;;;;;;;5245210;28;9805;-69
2022/03/07 04:02:28;;;;;;;;;13.00;13.00;;;;;;;;5227640;28;9460;-69
2022/03/07 04:04:59;;;;;;;;;12.00;12.00;;;;;;;;5225641;28;9425;-71
2022/03/07 04:07:31;;;;;;;;;8.33;7.00;;;;;;;;5211372;28;9322;-71
2022/03/07 04:10:02;;;;;;;;;0.00;0.00;;;;;;;;5245190;28;9201;-70
2022/03/07 04:12:33;;;;;;;;;7.67;7.67;;;;;;;;5226883;28;9232;-71
2022/03/07 04:15:05;;;;;;;;;12.67;12.67;;;;;;;;5211069;28;9316;-71
2022/03/07 04:17:40;;;;;;;;;10.67;10.67;;;;;;;;5210080;28;9496;-72
2022/03/07 04:20:13;;;;;;;;;22.33;20.33;;;;;;;;5227295;28;9274;-71
2022/03/07 04:22:44;;;;;;;;;14.00;10.00;;;;;;;;5227408;28;9684;-73
2022/03/07 04:25:16;;;;;;;;;8.67;7.33;;;;;;;;5245545;28;9345;-71
2022/03/07 04:27:47;;;;;;;;;10.67;9.67;;;;;;;;5239265;28;9931;-72
2022/03/07 04:30:18;;;;;;;;;7.67;7.67;;;;;;;;5231149;28;9233;-71
2022/03/07 04:32:49;;;;;;;;;13.67;13.00;;;;;;;;5214749;28;10275;-70
2022/03/07 04:35:21;;;;;;;;;4.67;4.67;;;;;;;;5230917;28;9571;-70
2022/03/07 04:37:52;;;;;;;;;9.33;8.33;;;;;;;;5215180;28;10258;-70
2022/03/07 04:40:24;;;;;;;;;7.00;7.00;;;;;;;;5230964;28;9285;-71
2022/03/07 04:42:56;;;;;;;;;7.00;7.00;;;;;;;;5231025;28;9901;-71
2022/03/07 04:45:27;;;;;;;;;6.00;6.00;;;;;;;;5197875;28;9906;-70
2022/03/07 04:47:58;;;;;;;;;9.00;7.67;;;;;;;;5213369;28;9225;-71
2022/03/07 04:50:29;;;;;;;;;3.00;3.00;;;;;;;;5240065;28;9179;-77
2022/03/07 04:53:00;;;;;;;;;5.33;4.00;;;;;;;;5225568;28;8868;-75
2022/03/07 04:55:31;;;;;;;;;5.33;5.33;;;;;;;;5232186;28;9031;-72
2022/03/07 04:58:03;;;;;;;;;0.75;0.75;;;;;;;;5197347;28;9041;-71
2022/03/07 05:00:35;;;;;;;;;4.67;4.67;;;;;;;;5230494;28;8813;-82
2022/03/07 05:03:06;;;;;;;;;1.33;1.33;;;;;;;;5231222;28;9016;-79
2022/03/07 05:05:37;;;;;;;;;2.33;2.33;;;;;;;;5230878;28;9183;-78
2022/03/07 05:08:08;;;;;;;;;0.00;0.00;;;;;;;;5230530;28;8938;-78
2022/03/07 05:10:40;;;;;;;;;0.33;0.33;;;;;;;;5213943;28;8797;-78
2022/03/07 05:13:12;;;;;;;;;4.00;4.00;;;;;;;;5214154;28;9622;-80
2022/03/07 05:15:43;;;;;;;;;3.00;3.00;;;;;;;;5213778;28;8924;-80
2022/03/07 05:18:15;;;;;;;;;1.00;1.00;;;;;;;;5197585;28;8836;-79
2022/03/07 05:20:47;;;;;;;;;3.67;3.67;;;;;;;;5230900;28;8943;-82
2022/03/07 05:23:18;;;;;;;;;4.50;4.50;;;;;;;;5214171;28;9801;-83
2022/03/07 05:25:50;;;;;;;;;1.00;1.00;;;;;;;;5232530;28;8769;-85
2022/03/07 05:28:21;;;;;;;;;3.75;3.75;;;;;;;;5214603;28;8800;-81
2022/03/07 05:30:52;;;;;;;;;4.33;3.67;;;;;;;;5246331;28;8874;-79
2022/03/07 05:33:23;;;;;;;;;3.25;3.25;;;;;;;;5229759;28;8957;-80
2022/03/07 05:35:55;;;;;;;;;0.75;0.75;;;;;;;;5229457;28;8827;-76
2022/03/07 05:38:26;;;;;;;;;0.50;0.50;;;;;;;;5213584;28;8792;-79
2022/03/07 05:40:57;;;;;;;;;1.00;1.00;;;;;;;;5190885;28;8899;-77
2022/03/07 05:43:46;;;;;;;;;3.50;3.50;;;;;;;;5243159;28;8801;-75
2022/03/07 05:46:17;;;;;;;;;4.67;4.67;;;;;;;;5227185;28;8797;-75
2022/03/07 05:48:48;;;;;;;;;22.33;22.33;;;;;;;;5227649;28;9408;-76
2022/03/07 05:51:23;;;;;;;;;5.00;4.75;;;;;;;;5199872;28;9497;-76
2022/03/07 05:53:54;;;;;;;;;1.00;1.00;;;;;;;;5260531;28;9535;-75
2022/03/07 05:56:25;;;;;;;;;0.00;0.00;;;;;;;;5227558;28;8951;-74
2022/03/07 05:58:56;;;;;;;;;13.25;12.25;;;;;;;;5211050;28;8800;-75
2022/03/07 06:01:27;;;;;;;;;3.50;3.50;;;;;;;;5209409;28;8816;-76
2022/03/07 06:03:59;;;;;;;;;3.00;3.00;;;;;;;;5260693;28;8793;-76
2022/03/07 06:06:30;;;;;;;;;1.75;1.75;;;;;;;;5212508;28;8812;-76
2022/03/07 06:09:01;;;;;;;;;1.00;1.00;;;;;;;;5229743;28;8779;-75
2022/03/07 06:11:33;;;;;;;;;2.50;2.50;;;;;;;;5246273;28;8771;-75
2022/03/07 06:14:04;;;;;;;;;0.00;0.00;;;;;;;;5245627;28;8836;-77
2022/03/07 06:16:36;;;;;;;;;3.75;3.75;;;;;;;;5226724;28;8774;-76
2022/03/07 06:19:07;;;;;;;;;1.00;1.00;;;;;;;;5207917;28;8862;-76
2022/03/07 06:21:38;;;;;;;;;3.00;3.00;;;;;;;;5195895;28;9546;-75
2022/03/07 06:24:09;;;;;;;;;7.33;7.33;;;;;;;;5212016;28;8841;-75
2022/03/07 06:26:40;;;;;;;;;3.00;3.00;;;;;;;;5210759;28;8796;-68
2022/03/07 06:29:11;;;;;;;;;3.25;3.00;;;;;;;;5227543;28;8777;-71
2022/03/07 06:31:42;;;;;;;;;1.67;1.67;;;;;;;;5245164;28;8803;-72
2022/03/07 06:34:13;;;;;;;;;79.50;63.75;;;;;;;;5226565;28;9938;-74
2022/03/07 06:36:44;;;;;;;;;4.75;4.75;;;;;;;;5210278;28;9732;-74
2022/03/07 06:39:16;;;;;;;;;6.00;6.00;;;;;;;;5210452;28;8773;-75
2022/03/07 06:41:47;;;;;;;;;36.33;30.67;;;;;;;;5228627;28;8887;-76
2022/03/07 06:44:18;;;;;;;;;9.75;8.50;;;;;;;;5226676;28;9074;-76
2022/03/07 06:46:49;;;;;;;;;4.00;4.00;;;;;;;;5215647;28;8828;-75
2022/03/07 06:49:21;;;;;;;;;6.00;6.00;;;;;;;;5206589;28;9546;-74
2022/03/07 06:51:52;;;;;;;;;14.25;14.25;;;;;;;;5226012;28;8804;-73
2022/03/07 06:54:23;;;;;;;;;9.00;9.00;;;;;;;;5213615;28;8860;-77
2022/03/07 06:56:55;;;;;;;;;4.50;4.50;;;;;;;;5220023;28;8797;-76
2022/03/07 06:59:27;;;;;;;;;7.00;7.00;;;;;;;;5211369;28;8769;-76
2022/03/07 07:02:00;;;;;;;;;14.50;13.75;;;;;;;;5212169;28;8799;-77
2022/03/07 07:04:31;;;;;;;;;4.50;3.75;;;;;;;;5244826;28;8804;-76
2022/03/07 07:07:02;;;;;;;;;1.67;1.00;;;;;;;;5211875;28;8808;-77
2022/03/07 07:09:52;;;;;;;;;10.00;7.00;;;;;;;;5226789;28;10531;-76
2022/03/07 07:12:23;;;;;;;;;5.25;3.75;;;;;;;;5207774;28;8835;-77
2022/03/07 07:14:54;;;;;;;;;8.75;8.75;;;;;;;;5176681;28;8968;-77
2022/03/07 07:17:25;;;;;;;;;17.75;17.00;;;;;;;;5227460;28;8783;-80
2022/03/07 07:19:57;;;;;;;;;21.50;18.00;;;;;;;;5215842;28;8794;-77
2022/03/07 07:22:28;;;;;;;;;21.50;19.00;;;;;;;;5212674;28;8797;-79
2022/03/07 07:25:00;;;;;;;;;19.50;19.00;;;;;;;;5228888;28;8782;-82
2022/03/07 07:27:31;;;;;;;;;19.25;19.25;;;;;;;;5210214;28;8804;-81
2022/03/07 07:30:06;;;;;;;;;7.25;6.50;;;;;;;;5194568;28;8939;-79
2022/03/07 07:32:39;;;;;;;;;5.50;4.00;;;;;;;;5227909;28;8808;-80
2022/03/07 07:35:10;;;;;;;;;7.50;7.50;;;;;;;;5227583;28;8958;-78
2022/03/07 07:37:42;;;;;;;;;8.50;8.50;;;;;;;;5211589;28;8788;-78
2022/03/07 07:40:32;;;;;;;;;8.50;8.50;;;;;;;;5220671;28;8828;-79
2022/03/07 07:43:03;;;;;;;;;9.25;9.00;;;;;;;;5191119;28;8820;-79
2022/03/07 07:45:34;;;;;;;;;3.25;1.75;;;;;;;;5213056;28;8816;-83
2022/03/07 07:48:24;;;;;;;;;6.00;6.00;;;;;;;;5214061;28;8817;-86
2022/03/07 07:50:56;;;;;;;;;0.60;0.60;;;;;;;;5227662;28;8832;-82
2022/03/07 07:53:27;;;;;;;;;0.50;0.50;;;;;;;;5227912;28;8839;-83
2022/03/07 07:55:58;;;;;;;;;5.50;5.50;;;;;;;;5226867;28;9523;-81
2022/03/07 07:58:30;;;;;;;;;3.75;3.75;;;;;;;;5226415;28;8800;-85
2022/03/07 08:01:01;;;;;;;;;7.50;7.50;;;;;;;;5209319;28;8798;-82
2022/03/07 08:03:32;;;;;;;;;5.75;5.75;;;;;;;;5225176;28;8811;-81
2022/03/07 08:06:03;;;;;;;;;0.00;0.00;;;;;;;;5211768;28;11125;-79
2022/03/07 08:08:34;;;;;;;;;3.40;3.40;;;;;;;;5178480;28;11536;-85
2022/03/07 08:11:05;;;;;;;;;2.25;2.00;;;;;;;;5196242;28;8901;-81
2022/03/07 08:13:36;;;;;;;;;2.50;2.50;;;;;;;;5194512;28;11459;-83
2022/03/07 08:16:07;;;;;;;;;5.50;5.50;;;;;;;;5193372;28;10198;-79
2022/03/07 08:18:38;;;;;;;;;7.00;7.00;;;;;;;;5214829;28;8784;-79
2022/03/07 08:21:09;;;;;;;;;7.40;7.40;;;;;;;;5216097;28;8850;-78
2022/03/07 08:23:40;;;;;;;;;2.80;2.80;;;;;;;;5215091;28;8807;-79
2022/03/07 08:26:11;;;;;;;;;1.00;1.00;;;;;;;;5214322;28;8785;-78
2022/03/07 08:28:42;;;;;;;;;4.00;4.00;;;;;;;;5210634;28;8863;-78
2022/03/07 08:31:24;;;;;;;;;3.00;3.00;;;;;;;;5213885;28;8795;-77
2022/03/07 08:33:56;;;;;;;;;6.00;6.00;;;;;;;;5211201;28;8823;-78
2022/03/07 08:36:35;;;;;;;;;7.00;7.00;;;;;;;;5231446;28;8776;-80
2022/03/07 08:39:06;;;;;;;;;5.20;5.20;;;;;;;;5211852;28;10237;-79
2022/03/07 08:41:40;;;;;;;;;0.00;0.00;;;;;;;;5213138;28;8876;-79
2022/03/07 08:44:11;;;;;;;;;10.50;10.00;;;;;;;;5247238;28;8832;-79
2022/03/07 08:46:42;;;;;;;;;5.60;5.60;;;;;;;;5211998;28;11516;-77
2022/03/07 08:49:13;;;;;;;;;4.20;3.80;;;;;;;;5212585;28;8850;-77
2022/03/07 08:51:46;;;;;;;;;6.00;6.00;;;;;;;;5228720;28;9686;-78
2022/03/07 08:54:17;;;;;;;;;15.25;13.50;;;;;;;;5209938;28;8851;-86
2022/03/07 08:56:48;;;;;;;;;60.33;46.33;;;;;;;;5229063;28;8936;-77
2022/03/07 08:59:38;;;;;;;;;2.80;2.80;;;;;;;;5214391;28;8956;-86
2022/03/07 09:02:09;;;;;;;;;1.00;1.00;;;;;;;;5255544;28;8812;-79
2022/03/07 09:04:59;;;;;;;;;9.00;9.00;;;;;;;;5242935;28;8789;-79
2022/03/07 09:07:31;;;;;;;;;13.00;12.25;;;;;;;;5245047;28;8835;-79
2022/03/07 09:10:03;;;;;;;;;7.60;7.60;;;;;;;;5236239;28;8810;-78
2022/03/07 09:12:34;;;;;;;;;5.60;5.60;;;;;;;;5243182;28;8821;-77
2022/03/07 09:15:06;;;;;;;;;3.40;3.40;;;;;;;;5230388;28;8834;-77
2022/03/07 09:17:37;;;;;;;;;3.80;2.60;;;;;;;;5230793;28;8799;-79
2022/03/07 09:20:08;;;;;;;;;0.60;0.60;;;;;;;;5229855;28;8799;-76
2022/03/07 09:22:39;;;;;;;;;1.00;1.00;;;;;;;;5223601;28;9559;-75
2022/03/07 09:25:11;;;;;;;;;1.50;1.50;;;;;;;;5213854;28;8954;-77
2022/03/07 09:27:43;;;;;;;;;2.40;2.40;;;;;;;;5229530;28;8886;-76
2022/03/07 09:30:14;;;;;;;;;12.40;12.40;;;;;;;;5196812;28;9025;-76
2022/03/07 09:32:45;;;;;;;;;0.60;0.60;;;;;;;;5213030;28;8824;-74
2022/03/07 09:35:16;;;;;;;;;4.20;4.20;;;;;;;;5229783;28;8848;-78
2022/03/07 09:37:47;;;;;;;;;2.60;2.60;;;;;;;;5247639;28;8853;-77
2022/03/07 09:40:20;;;;;;;;;3.00;3.00;;;;;;;;5229127;28;8915;-79
2022/03/07 09:42:54;;;;;;;;;2.60;2.60;;;;;;;;5213461;28;11075;-79
2022/03/07 09:45:47;;;;;;;;;12.60;12.60;;;;;;;;5231874;28;8846;-84
2022/03/07 09:48:21;;;;;;;;;2.20;2.20;;;;;;;;5198735;28;8819;-76
2022/03/07 09:50:53;;;;;;;;;0.00;0.00;;;;;;;;5210826;28;9041;-74
2022/03/07 09:53:24;;;;;;;;;0.20;0.20;;;;;;;;5247170;28;8938;-76
2022/03/07 09:55:55;;;;;;;;;2.20;2.20;;;;;;;;5229186;28;8835;-76
2022/03/07 09:58:26;;;;;;;;;0.60;0.60;;;;;;;;5219955;28;8814;-77
2022/03/07 10:01:13;;;;;;;;;4.00;4.00;;;;;;;;5210827;28;8789;-75
2022/03/07 10:03:43;;;;;;;;;1.00;1.00;;;;;;;;5237066;28;9900;-76
2022/03/07 10:06:19;;;;;;;;;3.25;3.25;;;;;;;;5224326;28;8806;-76
2022/03/07 10:08:56;;;;;;;;;0.00;0.00;;;;;;;;5226060;28;8798;-76
2022/03/07 10:11:28;;;;;;;;;0.00;0.00;;;;;;;;5223596;28;9578;-76
2022/03/07 10:14:00;;;;;;;;;3.00;3.00;;;;;;;;5192143;28;8826;-75
2022/03/07 10:16:41;;;;;;;;;5.60;5.60;;;;;;;;5230000;28;8813;-76
2022/03/07 10:19:14;;;;;;;;;4.00;4.00;;;;;;;;5218347;28;8814;-76
2022/03/07 10:21:50;;;;;;;;;0.00;0.00;;;;;;;;5212603;28;8801;-74
2022/03/07 10:24:32;;;;;;;;;6.20;6.20;;;;;;;;5195349;28;8850;-77
2022/03/07 10:27:03;;;;;;;;;2.20;1.40;;;;;;;;5204922;28;9632;-80
2022/03/07 10:29:44;;;;;;;;;6.00;6.00;;;;;;;;5245025;28;8945;-76
2022/03/07 10:32:16;;;;;;;;;0.00;0.00;;;;;;;;5212476;28;12685;-81
2022/03/07 10:34:53;;;;;;;;;2.60;2.60;;;;;;;;5223019;28;8834;-80
2022/03/07 10:37:40;;;;;;;;;1.00;1.00;;;;;;;;5207058;28;8868;-78
2022/03/07 10:40:18;;;;;;;;;2.20;2.20;;;;;;;;5230546;28;8828;-79
2022/03/07 10:42:50;;;;;;;;;1.40;1.40;;;;;;;;5226935;28;9605;-80
2022/03/07 10:45:23;;;;;;;;;3.80;3.80;;;;;;;;5209580;28;8800;-77
2022/03/07 10:47:59;;;;;;;;;26.00;24.25;;;;;;;;5193893;28;8847;-79
2022/03/07 10:50:50;;;;;;;;;13.40;13.00;;;;;;;;5227027;28;8800;-81
2022/03/07 10:53:21;;;;;;;;;2.60;2.60;;;;;;;;5193276;28;8807;-78
2022/03/07 10:55:53;;;;;;;;;7.00;7.00;;;;;;;;5210090;28;9554;-78
2022/03/07 10:58:24;;;;;;;;;1.80;1.80;;;;;;;;5209122;28;8821;-79
2022/03/07 11:00:59;;;;;;;;;11.20;11.20;;;;;;;;5255176;28;8804;-83
2022/03/07 11:03:34;;;;;;;;;4.00;4.00;;;;;;;;5215894;28;8857;-82
2022/03/07 11:06:05;;;;;;;;;6.00;5.00;;;;;;;;5208838;28;8822;-80
2022/03/07 11:08:55;;;;;;;;;121.00;99.00;;;;;;;;5228372;28;8833;-80
2022/03/07 11:11:26;;;;;;;;;11.20;11.20;;;;;;;;5219423;28;11552;-81
2022/03/07 11:14:19;;;;;;;;;9.40;8.20;;;;;;;;5212104;28;8962;-82
2022/03/07 11:17:12;;;;;;;;;0.00;0.00;;;;;;;;5227411;28;8791;-81
2022/03/07 11:19:46;;;;;;;;;3.00;2.20;;;;;;;;5208110;28;10310;-79
2022/03/07 11:22:17;;;;;;;;;1.00;1.00;;;;;;;;5244862;28;8824;-80
2022/03/07 11:25:16;;;;;;;;;2.20;2.20;;;;;;;;5211612;28;8848;-83
2022/03/07 11:27:55;;;;;;;;;1.00;1.00;;;;;;;;5215023;28;8833;-81
2022/03/07 11:30:46;;;;;;;;;1.80;1.80;;;;;;;;5241805;28;8881;-83
2022/03/07 11:33:37;;;;;;;;;1.00;1.00;;;;;;;;5207677;28;8807;-84
2022/03/07 11:36:18;;;;;;;;;2.60;2.60;;;;;;;;5232281;28;8805;-83
2022/03/07 11:38:50;;;;;;;;;0.00;0.00;;;;;;;;5228347;28;8787;-79
2022/03/07 11:41:31;;;;;;;;;1.00;1.00;;;;;;;;5207952;28;8819;-78
2022/03/07 11:44:05;;;;;;;;;2.00;2.00;;;;;;;;5225451;28;8806;-85
2022/03/07 11:46:40;;;;;;;;;0.40;0.40;;;;;;;;5225285;28;8787;-83
2022/03/07 11:49:27;;;;;;;;;2.60;2.60;;;;;;;;5210018;28;8795;-85
2022/03/07 11:51:59;;;;;;;;;11.60;11.60;;;;;;;;5208498;28;8868;-89
2022/03/07 11:54:30;;;;;;;;;12.80;11.80;;;;;;;;5194165;28;8830;-86
2022/03/07 11:57:09;;;;;;;;;0.40;0.40;;;;;;;;5174990;28;8783;-80
2022/03/07 11:59:40;;;;;;;;;0.00;0.00;;;;;;;;5200552;28;8870;-86
2022/03/07 12:02:11;;;;;;;;;5.20;5.20;;;;;;;;5209095;28;8802;-81
2022/03/07 12:04:44;;;;;;;;;3.60;3.60;;;;;;;;5224533;28;9594;-80
2022/03/07 12:07:24;;;;;;;;;0.00;0.00;;;;;;;;5209537;28;8825;-81
2022/03/07 12:10:04;;;;;;;;;0.60;0.60;;;;;;;;5242557;28;8767;-81
2022/03/07 12:12:35;;;;;;;;;5.60;5.60;;;;;;;;5219731;28;8863;-83
2022/03/07 12:15:07;;;;;;;;;2.50;2.50;;;;;;;;5212209;28;9517;-79
2022/03/07 12:17:38;;;;;;;;;8.20;8.20;;;;;;;;5227717;28;11447;-77
2022/03/07 12:20:10;;;;;;;;;0.00;0.00;;;;;;;;5177630;28;8802;-82
2022/03/07 12:22:41;;;;;;;;;2.60;2.60;;;;;;;;5219539;28;8784;-80
2022/03/07 12:25:12;;;;;;;;;3.20;3.20;;;;;;;;5211536;28;8801;-80
2022/03/07 12:27:43;;;;;;;;;10.40;9.60;;;;;;;;5211518;28;8804;-82
2022/03/07 12:30:15;;;;;;;;;45.00;36.40;;;;;;;;5212036;28;9554;-79
2022/03/07 12:32:46;;;;;;;;;5.50;5.50;;;;;;;;5230978;28;8782;-80
2022/03/07 12:35:27;;;;;;;;;3.00;3.00;;;;;;;;5274804;28;9293;-79
2022/03/07 12:38:04;;;;;;;;;0.00;0.00;;;;;;;;5218618;28;8794;-80
2022/03/07 12:40:39;;;;;;;;;1.00;1.00;;;;;;;;5208382;28;8799;-85
2022/03/07 12:43:11;;;;;;;;;1.00;1.00;;;;;;;;5199753;28;8773;-80
2022/03/07 12:45:46;;;;;;;;;3.00;3.00;;;;;;;;5216098;28;8795;-80
2022/03/07 12:48:17;;;;;;;;;1.00;1.00;;;;;;;;5204649;28;8788;-79
2022/03/07 12:50:48;;;;;;;;;0.00;0.00;;;;;;;;5224235;28;8880;-80
2022/03/07 12:53:19;;;;;;;;;0.00;0.00;;;;;;;;5233354;28;8806;-83
2022/03/07 12:56:00;;;;;;;;;0.00;0.00;;;;;;;;5271393;28;9599;-87
2022/03/07 12:58:49;;;;;;;;;0.00;0.00;;;;;;;;5246390;28;8772;-80
2022/03/07 13:01:20;;;;;;;;;0.75;0.75;;;;;;;;5215773;28;8915;-83
2022/03/07 13:03:52;;;;;;;;;1.40;1.40;;;;;;;;5217315;28;8772;-82
2022/03/07 13:06:27;;;;;;;;;1.00;1.00;;;;;;;;5233325;28;8781;-78
2022/03/07 13:08:58;;;;;;;;;12.80;11.80;;;;;;;;5216085;28;8789;-83
2022/03/07 13:11:41;;;;;;;;;18.25;16.25;;;;;;;;5232450;28;8818;-79
2022/03/07 13:14:21;;;;;;;;;147.25;130.25;;;;;;;;5199355;28;11516;-77
2022/03/07 13:16:53;;;;;;;;;8.20;8.20;;;;;;;;5228589;28;11228;-78
2022/03/07 13:19:46;;;;;;;;;0.80;0.80;;;;;;;;5215477;28;8873;-78
2022/03/07 13:22:33;;;;;;;;;15.60;15.20;;;;;;;;5231121;28;9535;-77
2022/03/07 13:25:04;;;;;;;;;3.00;3.00;;;;;;;;5210651;28;8798;-77
2022/03/07 13:27:43;;;;;;;;;14.60;14.60;;;;;;;;5208101;28;8822;-75
2022/03/07 13:30:15;;;;;;;;;6.00;6.00;;;;;;;;5224531;28;8821;-77
2022/03/07 13:33:06;;;;;;;;;12.60;12.60;;;;;;;;5229630;28;8941;-77
2022/03/07 13:35:39;;;;;;;;;13.40;13.00;;;;;;;;5229983;28;8805;-77
2022/03/07 13:38:20;;;;;;;;;16.20;15.40;;;;;;;;5229524;28;8808;-77
2022/03/07 13:40:51;;;;;;;;;6.40;6.40;;;;;;;;5197925;28;8793;-77
2022/03/07 13:43:26;;;;;;;;;4.00;4.00;;;;;;;;5213542;28;9650;-78
2022/03/07 13:45:57;;;;;;;;;0.60;0.60;;;;;;;;5197055;28;8866;-77
2022/03/07 13:48:28;;;;;;;;;3.60;3.60;;;;;;;;5196262;28;8781;-77
2022/03/07 13:50:59;;;;;;;;;1.50;1.50;;;;;;;;5197037;28;8801;-78
2022/03/07 13:53:31;;;;;;;;;12.50;12.50;;;;;;;;5229569;28;9002;-78
2022/03/07 13:56:03;;;;;;;;;17.00;16.60;;;;;;;;5212998;28;9510;-77
2022/03/07 13:58:36;;;;;;;;;7.00;7.00;;;;;;;;5229583;28;8789;-76
2022/03/07 14:01:08;;;;;;;;;6.20;6.20;;;;;;;;5228586;28;8857;-76
2022/03/07 14:03:39;;;;;;;;;10.00;10.00;;;;;;;;5192853;28;8814;-77
2022/03/07 14:06:17;;;;;;;;;11.20;11.20;;;;;;;;5211087;28;8782;-77
2022/03/07 14:09:11;;;;;;;;;16.60;15.60;;;;;;;;5214285;28;8824;-76
2022/03/07 14:11:45;;;;;;;;;11.80;11.80;;;;;;;;5210406;28;8801;-76
2022/03/07 14:14:18;;;;;;;;;8.20;7.80;;;;;;;;5227567;28;8812;-77
2022/03/07 14:16:49;;;;;;;;;22.75;21.75;;;;;;;;5194209;28;8803;-75
2022/03/07 14:19:38;;;;;;;;;42.25;39.00;;;;;;;;5245436;28;8820;-76
2022/03/07 14:22:09;;;;;;;;;52.67;45.33;;;;;;;;5193873;28;8793;-76
2022/03/07 14:24:40;;;;;;;;;67.25;56.00;;;;;;;;5210244;28;8801;-77
2022/03/07 14:27:10;;;;;;;;;56.67;49.67;;;;;;;;5226426;28;8811;-77
2022/03/07 14:29:43;;;;;;;;;77.00;59.33;;;;;;;;5245420;28;8792;-77
2022/03/07 14:32:14;;;;;;;;;61.50;52.25;;;;;;;;5205683;28;8784;-76
2022/03/07 14:34:45;;;;;;;;;79.00;59.25;;;;;;;;5206400;28;8850;-73
2022/03/07 14:37:16;;;;;;;;;83.33;62.33;;;;;;;;5222449;28;8823;-75
2022/03/07 14:40:07;;;;;;;;;109.75;79.00;;;;;;;;5239889;28;8960;-75
2022/03/07 14:42:40;;;;;;;;;114.50;83.75;;;;;;;;5233942;28;11169;-76
2022/03/07 14:45:12;;;;;;;;;89.33;68.33;;;;;;;;5243668;28;11653;-77
2022/03/07 14:47:47;;;;;;;;;86.33;68.00;;;;;;;;5226687;28;9533;-75
2022/03/07 14:50:20;;;;;;;;;108.25;78.25;;;;;;;;5227075;28;9726;-75
2022/03/07 14:52:52;;;;;;;;;69.00;50.67;;;;;;;;5227175;28;11705;-77
2022/03/07 14:55:23;;;;;;;;;92.00;66.00;;;;;;;;5231431;28;9324;-77
2022/03/07 14:57:54;;;;;;;;;79.75;62.50;;;;;;;;5210476;28;10229;-75
2022/03/07 15:00:26;;;;;;;;;86.25;67.25;;;;;;;;5209639;28;9938;-75
2022/03/07 15:02:57;;;;;;;;;55.50;47.75;;;;;;;;5227114;28;8792;-75
2022/03/07 15:05:28;;;;;;;;;82.00;64.00;;;;;;;;5245899;28;8788;-75
2022/03/07 15:07:59;;;;;;;;;84.00;63.00;;;;;;;;5226778;28;11495;-75
2022/03/07 15:10:31;;;;;;;;;77.00;60.67;;;;;;;;5225949;28;10390;-75
2022/03/07 15:13:20;;;;;;;;;73.00;58.00;;;;;;;;5244126;28;9330;-75
2022/03/07 15:15:52;;;;;;;;;30.33;30.33;;;;;;;;5226915;28;9028;-76
2022/03/07 15:18:23;;;;;;;;;70.25;56.00;;;;;;;;5226370;28;8965;-77
2022/03/07 15:20:53;;;;;;;;;69.00;57.00;;;;;;;;5210179;28;8899;-76
2022/03/07 15:23:24;;;;;;;;;27.25;27.00;;;;;;;;5227434;28;9002;-75